Vega Emtoli — LAQY7 — position and weather

sailwx.info

Track history (hours):
 
Tides and Currents Weather Stations Pressure Air Temp Water Temp Dewpoint Dewpoint Depression Visibility Wind Speed Wind Dir Waves Ship Positions

Vega Emtoli

Last reported at 2017-Apr-27 06:36 UTC. Time now 2017-Apr-27 18:48 UTC.
Position S 23°27' W 040°59'.

Length 59 m; draft 4.6 m.

Type: Pollution control. MMSI: 258026000.

Date/timePositionNaut miles runAvg speedWind from/ knotsBaromVisibWave heightAir tempDewpointWater temp
2017-Apr-27 06:36S 23°27' W 040°59'0 1.4
2017-Apr-27 06:27S 23°27' W 040°59'1 1.3
2017-Apr-27 05:44S 23°28' W 040°60'1 1.0
2017-Apr-27 04:57S 23°29' W 041°00'1 1.0
2017-Apr-27 04:26S 23°29' W 041°01'0 0.5
2017-Apr-27 03:54S 23°29' W 041°01'1 3.0
2017-Apr-27 03:29S 23°28' W 041°00'1 3.0
2017-Apr-27 03:00S 23°27' W 040°59'0 0.5
2017-Apr-27 02:29S 23°27' W 040°59'1 1.7
2017-Apr-27 02:01S 23°28' W 040°60'3 1.8
2017-Apr-27 00:29S 23°29' W 041°02'0 0.6
2017-Apr-26 23:51S 23°29' W 041°02'1 4.1
2017-Apr-26 23:30S 23°28' W 041°02'5 9.5
2017-Apr-26 23:00S 23°24' W 040°59'5 9.9
2017-Apr-26 22:31S 23°20' W 040°56'510.4
2017-Apr-26 22:00S 23°15' W 040°53'510.2
2017-Apr-26 21:31S 23°11' W 040°50'510.1
2017-Apr-26 21:01S 23°07' W 040°47'4 1.9
2017-Apr-26 18:38S 23°03' W 040°45'0 1.2
2017-Apr-26 18:19S 23°03' W 040°45'2 0.3
2017-Apr-26 11:00S 23°03' W 040°47'1 0.5
2017-Apr-26 09:41S 23°04' W 040°47'1 3.5
2017-Apr-26 09:31S 23°03' W 040°47'2 0.3
2017-Apr-26 02:44S 23°02' W 040°47'1 2.4
2017-Apr-26 02:27S 23°01' W 040°47'1 2.4
2017-Apr-26 01:55S 23°01' W 040°45'1 2.3
2017-Apr-26 01:30S 23°01' W 040°44'1 0.1
2017-Apr-25 13:46S 23°01' W 040°44'1 1.8
2017-Apr-25 13:16S 23°01' W 040°45'1 1.0
2017-Apr-25 12:07S 23°02' W 040°44'  
Track history (hours):
 
Tides and Currents Weather Stations Pressure Air Temp Water Temp Dewpoint Dewpoint Depression Visibility Wind Speed Wind Dir Waves Ship Positions

Vega Emtoli

Last reported at 2017-Apr-27 06:36 UTC. Time now 2017-Apr-27 18:48 UTC.
Position S 23°27' W 040°59'.

Length 59 m; draft 4.6 m.

Type: Pollution control. MMSI: 258026000.

Date/timePositionNaut miles runAvg speedWind from/ knotsBaromVisibWave heightAir tempDewpointWater temp
2017-Apr-27 06:36S 23°27' W 040°59'0 1.4
2017-Apr-27 06:27S 23°27' W 040°59'1 1.3
2017-Apr-27 05:44S 23°28' W 040°60'1 1.0
2017-Apr-27 04:57S 23°29' W 041°00'1 1.0
2017-Apr-27 04:26S 23°29' W 041°01'0 0.5
2017-Apr-27 03:54S 23°29' W 041°01'1 3.0
2017-Apr-27 03:29S 23°28' W 041°00'1 3.0
2017-Apr-27 03:00S 23°27' W 040°59'0 0.5
2017-Apr-27 02:29S 23°27' W 040°59'1 1.7
2017-Apr-27 02:01S 23°28' W 040°60'3 1.8
2017-Apr-27 00:29S 23°29' W 041°02'0 0.6
2017-Apr-26 23:51S 23°29' W 041°02'1 4.1
2017-Apr-26 23:30S 23°28' W 041°02'5 9.5
2017-Apr-26 23:00S 23°24' W 040°59'5 9.9
2017-Apr-26 22:31S 23°20' W 040°56'510.4
2017-Apr-26 22:00S 23°15' W 040°53'510.2
2017-Apr-26 21:31S 23°11' W 040°50'510.1
2017-Apr-26 21:01S 23°07' W 040°47'4 1.9
2017-Apr-26 18:38S 23°03' W 040°45'0 1.2
2017-Apr-26 18:19S 23°03' W 040°45'2 0.3
2017-Apr-26 11:00S 23°03' W 040°47'1 0.5
2017-Apr-26 09:41S 23°04' W 040°47'1 3.5
2017-Apr-26 09:31S 23°03' W 040°47'2 0.3
2017-Apr-26 02:44S 23°02' W 040°47'1 2.4
2017-Apr-26 02:27S 23°01' W 040°47'1 2.4
2017-Apr-26 01:55S 23°01' W 040°45'1 2.3
2017-Apr-26 01:30S 23°01' W 040°44'1 0.1
2017-Apr-25 13:46S 23°01' W 040°44'1 1.8
2017-Apr-25 13:16S 23°01' W 040°45'1 1.0
2017-Apr-25 12:07S 23°02' W 040°44'  

Dump ship's entire track history